Terminal Aerodrome Forecast
Issued by NWS

Home | Current Version | Previous Version | Text Only | Print | Product List | Glossary On
Versions: 1 2 3 4 5 6 7 8 9 10 11 12 13
000
FTUS46 KSTO 012334
TAFRBL
TAF
KRBL 012334Z 0200/0224 15016G25KT P6SM BKN200
     FM020300 15009KT P6SM BKN200
     FM020700 32005KT P6SM BKN200
     FM022000 16012KT P6SM BKN200=

USA.gov is the U.S. government's official web portal to all federal, state and local government web resources and services.